Time;durP1;ratioP1;P1;durP2;ratioP2;P2;SDS_P1;SDS_P2;PMS_P1;PMS_P2;Temp;Humidity;BMP_temperature;BMP_pressure;BME280_temperature;BME280_humidity;BME280_pressure;Samples;Min_cycle;Max_cycle;Signal;HPM_P1;HPM_P2
2024/01/11 00:02:19;;;;;;;136.98;49.20;;;-8.20;99.90;;;;;;5024052;28;20033;-83
2024/01/11 00:04:45;;;;;;;124.28;45.40;;;-8.20;99.90;;;;;;5024190;28;20486;-79
2024/01/11 00:07:10;;;;;;;117.05;44.22;;;-8.20;99.90;;;;;;5021683;28;20021;-82
2024/01/11 00:09:42;;;;;;;113.90;44.53;;;-8.20;99.90;;;;;;5023225;28;20037;-79
2024/01/11 00:12:08;;;;;;;112.13;43.25;;;-8.20;99.90;;;;;;5026176;28;20078;-81
2024/01/11 00:14:35;;;;;;;110.03;44.70;;;-8.10;99.90;;;;;;5021690;28;20034;-79
2024/01/11 00:17:00;;;;;;;117.40;44.90;;;-8.10;99.90;;;;;;5025406;28;20033;-79
2024/01/11 00:19:26;;;;;;;106.07;42.97;;;-8.10;99.90;;;;;;5020977;28;20025;-78
2024/01/11 00:21:52;;;;;;;113.28;43.15;;;-8.10;99.90;;;;;;5023684;28;20021;-80
2024/01/11 00:24:20;;;;;;;117.18;43.15;;;-8.10;99.90;;;;;;5025151;28;20030;-83
2024/01/11 00:26:46;;;;;;;114.72;44.28;;;-8.10;99.90;;;;;;5024830;28;20056;-79
2024/01/11 00:29:12;;;;;;;101.18;37.63;;;-8.10;99.90;;;;;;5020780;28;20510;-79
2024/01/11 00:31:38;;;;;;;100.65;39.13;;;-8.10;99.90;;;;;;5024216;28;20516;-79
2024/01/11 00:34:04;;;;;;;111.28;41.13;;;-8.10;99.90;;;;;;5024316;28;20029;-79
2024/01/11 00:36:30;;;;;;;102.88;38.72;;;-8.10;99.90;;;;;;5024650;28;20108;-80
2024/01/11 00:38:56;;;;;;;98.30;36.72;;;-8.20;99.90;;;;;;5021449;28;20021;-79
2024/01/11 00:41:21;;;;;;;91.30;35.88;;;-8.10;99.90;;;;;;5023543;28;20045;-79
2024/01/11 00:43:47;;;;;;;106.82;40.72;;;-8.20;99.90;;;;;;5026827;28;20805;-79
2024/01/11 00:46:13;;;;;;;103.30;39.38;;;-8.20;99.90;;;;;;5023935;28;20053;-79
2024/01/11 00:48:38;;;;;;;97.30;35.65;;;-8.20;99.90;;;;;;5021918;28;20111;-81
2024/01/11 00:51:05;;;;;;;104.53;39.60;;;-8.20;99.90;;;;;;5019666;28;20033;-79
2024/01/11 00:53:31;;;;;;;103.25;41.75;;;-8.20;99.90;;;;;;5021416;28;20421;-79
2024/01/11 00:55:58;;;;;;;113.18;41.75;;;-8.10;99.90;;;;;;5021862;28;20022;-83
2024/01/11 00:58:23;;;;;;;119.63;43.13;;;-8.10;99.90;;;;;;5021045;28;20028;-79
2024/01/11 01:00:49;;;;;;;117.68;41.88;;;-8.10;99.90;;;;;;5016843;28;20029;-79
2024/01/11 01:03:16;;;;;;;116.25;41.55;;;-8.10;99.90;;;;;;5022474;28;20025;-79
2024/01/11 01:05:42;;;;;;;113.35;44.25;;;-8.10;99.90;;;;;;5018533;28;20277;-80
2024/01/11 01:08:07;;;;;;;134.38;45.50;;;-8.20;99.90;;;;;;5022412;28;20479;-80
2024/01/11 01:10:33;;;;;;;116.60;44.33;;;-8.10;99.90;;;;;;5021583;28;20104;-80
2024/01/11 01:12:59;;;;;;;118.82;45.78;;;-8.10;99.90;;;;;;5024493;28;20025;-79
2024/01/11 01:15:24;;;;;;;98.53;38.13;;;-8.10;99.90;;;;;;5020684;28;20036;-79
2024/01/11 01:17:50;;;;;;;103.90;40.92;;;-8.10;99.90;;;;;;5021236;28;20033;-79
2024/01/11 01:20:15;;;;;;;113.78;42.67;;;-8.10;99.90;;;;;;5019780;28;20030;-80
2024/01/11 01:22:41;;;;;;;94.88;39.47;;;-8.10;99.90;;;;;;5022694;28;20087;-79
2024/01/11 01:25:07;;;;;;;118.95;44.20;;;-8.00;99.90;;;;;;5024136;28;20022;-79
2024/01/11 01:27:33;;;;;;;104.32;41.42;;;-8.00;99.90;;;;;;5022405;28;20033;-79
2024/01/11 01:29:58;;;;;;;116.90;43.85;;;-8.00;99.90;;;;;;5018331;28;20041;-80
2024/01/11 01:32:24;;;;;;;103.28;40.10;;;-8.10;99.90;;;;;;5021652;28;20022;-79
2024/01/11 01:34:49;;;;;;;97.05;35.75;;;-8.10;99.90;;;;;;5025908;28;20034;-79
2024/01/11 01:37:15;;;;;;;88.90;36.42;;;-8.10;99.90;;;;;;5025725;28;20025;-79
2024/01/11 01:39:42;;;;;;;98.93;36.22;;;-8.10;99.90;;;;;;5020873;28;20048;-79
2024/01/11 01:42:07;;;;;;;97.78;40.58;;;-8.10;99.90;;;;;;5020482;28;20029;-79
2024/01/11 01:44:33;;;;;;;103.30;38.80;;;-8.10;99.90;;;;;;5015913;28;20541;-79
2024/01/11 01:47:00;;;;;;;108.05;40.28;;;-8.00;99.90;;;;;;5024425;28;20033;-79
2024/01/11 01:49:25;;;;;;;104.88;39.75;;;-8.00;99.90;;;;;;5021309;28;20021;-79
2024/01/11 01:51:53;;;;;;;93.82;36.20;;;-8.00;99.90;;;;;;5022275;28;20033;-78
2024/01/11 01:54:20;;;;;;;98.05;38.92;;;-8.00;99.90;;;;;;5020938;28;20036;-79
2024/01/11 01:56:47;;;;;;;92.60;36.17;;;-8.10;99.90;;;;;;5022409;28;20099;-79
2024/01/11 01:59:16;;;;;;;88.70;37.40;;;-8.10;99.90;;;;;;5023380;28;20029;-83
2024/01/11 02:01:42;;;;;;;94.15;39.20;;;-8.10;99.90;;;;;;5018722;28;20036;-79
2024/01/11 02:04:08;;;;;;;106.05;40.03;;;-8.10;99.90;;;;;;5021613;28;20053;-80
2024/01/11 02:06:34;;;;;;;121.28;42.72;;;-8.10;99.90;;;;;;5022477;28;20125;-79
2024/01/11 02:09:03;;;;;;;106.72;39.55;;;-8.00;99.90;;;;;;5019925;28;20053;-79
2024/01/11 02:11:30;;;;;;;114.95;43.28;;;-7.90;99.90;;;;;;5022000;28;20375;-79
2024/01/11 02:13:55;;;;;;;99.35;37.42;;;-7.90;99.90;;;;;;5021907;28;20060;-79
2024/01/11 02:16:21;;;;;;;98.43;38.38;;;-7.90;99.90;;;;;;5026072;28;20057;-80
2024/01/11 02:18:46;;;;;;;98.53;39.65;;;-7.90;99.90;;;;;;5025626;28;20010;-82
2024/01/11 02:21:15;;;;;;;89.10;34.70;;;-7.80;99.90;;;;;;5022139;28;20268;-79
2024/01/11 02:23:52;;;;;;;98.70;40.15;;;-7.80;99.90;;;;;;5022996;28;20474;-79
2024/01/11 02:26:18;;;;;;;82.88;33.15;;;-7.80;99.90;;;;;;5029181;28;20052;-79
2024/01/11 02:28:44;;;;;;;84.32;33.47;;;-7.80;99.90;;;;;;5019252;28;20053;-78
2024/01/11 02:31:12;;;;;;;76.10;29.05;;;-7.80;99.90;;;;;;5023680;28;20036;-79
2024/01/11 02:33:38;;;;;;;78.32;29.13;;;-7.80;99.90;;;;;;5020177;28;20108;-80
2024/01/11 02:36:05;;;;;;;79.05;29.60;;;-7.90;99.90;;;;;;5014052;28;20040;-78
2024/01/11 02:38:32;;;;;;;73.20;26.75;;;-7.90;99.90;;;;;;5023507;28;20052;-79
2024/01/11 02:40:59;;;;;;;72.40;28.80;;;-7.90;99.90;;;;;;5023134;28;20099;-80
2024/01/11 02:43:25;;;;;;;81.97;27.85;;;-7.90;99.90;;;;;;5022958;28;20035;-79
2024/01/11 02:45:55;;;;;;;57.63;25.45;;;-7.90;99.90;;;;;;5021630;28;20463;-79
2024/01/11 02:48:20;;;;;;;73.30;28.50;;;-7.90;99.90;;;;;;5021170;28;20564;-81
2024/01/11 02:50:48;;;;;;;84.18;30.55;;;-7.90;99.90;;;;;;5022032;28;20128;-79
2024/01/11 02:53:14;;;;;;;77.35;31.35;;;-7.90;99.90;;;;;;5022517;28;20108;-79
2024/01/11 02:55:39;;;;;;;89.38;32.67;;;-7.80;99.90;;;;;;5019768;28;20439;-79
2024/01/11 02:58:05;;;;;;;97.55;34.67;;;-7.70;99.90;;;;;;5018933;28;20064;-80
2024/01/11 03:00:30;;;;;;;75.15;31.88;;;-7.80;99.90;;;;;;5025435;28;20029;-80
2024/01/11 03:02:56;;;;;;;95.05;35.83;;;-7.90;99.90;;;;;;5026911;28;20370;-79
2024/01/11 03:05:22;;;;;;;86.60;32.88;;;-7.90;99.90;;;;;;5017474;28;20042;-81
2024/01/11 03:07:47;;;;;;;94.15;34.92;;;-7.90;99.90;;;;;;5022429;28;20057;-79
2024/01/11 03:10:13;;;;;;;90.40;33.60;;;-7.90;99.90;;;;;;5022779;28;20038;-79
2024/01/11 03:16:00;;;;;;;78.53;31.70;;;-7.90;99.90;;;;;;5013389;28;20603;-79
2024/01/11 03:18:26;;;;;;;81.53;32.90;;;-7.90;99.90;;;;;;5016975;28;20116;-79
2024/01/11 03:20:51;;;;;;;80.60;31.55;;;-7.90;99.90;;;;;;5022168;28;20025;-79
2024/01/11 03:23:17;;;;;;;75.43;30.08;;;-7.90;99.90;;;;;;5014164;28;20076;-79
2024/01/11 03:25:43;;;;;;;69.97;27.92;;;-7.90;99.90;;;;;;5025389;28;20067;-83
2024/01/11 03:28:08;;;;;;;70.72;27.65;;;-7.90;99.90;;;;;;5031385;28;20042;-80
2024/01/11 03:30:34;;;;;;;63.92;27.60;;;-7.90;99.90;;;;;;5025612;28;20472;-78
2024/01/11 03:32:59;;;;;;;70.18;27.95;;;-7.90;99.90;;;;;;5024168;28;20025;-79
2024/01/11 03:35:25;;;;;;;56.92;25.05;;;-7.80;99.90;;;;;;5023971;28;20057;-79
2024/01/11 03:37:51;;;;;;;59.38;24.50;;;-7.80;99.90;;;;;;5023087;28;20524;-79
2024/01/11 03:40:17;;;;;;;57.92;22.38;;;-7.90;99.90;;;;;;5022819;28;20041;-80
2024/01/11 03:42:43;;;;;;;60.65;24.20;;;-7.90;99.90;;;;;;5018500;28;20049;-82
2024/01/11 03:45:10;;;;;;;59.03;23.85;;;-7.90;99.90;;;;;;5022919;28;20033;-79
2024/01/11 03:47:35;;;;;;;61.53;23.00;;;-7.80;99.90;;;;;;5022358;28;20042;-79
2024/01/11 03:50:01;;;;;;;60.13;22.67;;;-7.90;99.90;;;;;;5018999;28;20697;-78
2024/01/11 03:52:27;;;;;;;52.88;20.55;;;-7.90;99.90;;;;;;5023817;28;20039;-79
2024/01/11 03:54:53;;;;;;;58.83;22.95;;;-7.90;99.90;;;;;;5030724;28;20484;-79
2024/01/11 03:57:18;;;;;;;66.43;22.95;;;-7.80;99.90;;;;;;5025259;28;20029;-80
2024/01/11 03:59:44;;;;;;;64.88;25.95;;;-7.80;99.90;;;;;;5024036;28;20080;-79
2024/01/11 04:02:10;;;;;;;60.40;24.58;;;-7.80;99.90;;;;;;5022438;28;20036;-80
2024/01/11 04:04:36;;;;;;;76.82;28.25;;;-7.80;99.90;;;;;;5024191;28;20055;-79
2024/01/11 04:07:02;;;;;;;71.18;26.35;;;-7.80;99.90;;;;;;5016569;28;20022;-79
2024/01/11 04:09:28;;;;;;;64.20;25.48;;;-7.80;99.90;;;;;;5013542;28;20406;-79
2024/01/11 04:11:54;;;;;;;66.93;26.58;;;-7.80;99.90;;;;;;5019912;28;20026;-81
2024/01/11 04:14:19;;;;;;;72.68;28.15;;;-7.70;99.90;;;;;;5021735;28;20025;-80
2024/01/11 04:16:45;;;;;;;61.97;25.27;;;-7.80;99.90;;;;;;5024804;28;20052;-79
2024/01/11 04:19:11;;;;;;;70.00;25.92;;;-7.80;99.90;;;;;;5022741;28;20465;-79
2024/01/11 04:21:38;;;;;;;65.22;25.58;;;-7.70;99.90;;;;;;5023350;28;20060;-79
2024/01/11 04:24:08;;;;;;;63.17;25.05;;;-7.80;99.90;;;;;;5021725;28;20025;-81
2024/01/11 04:26:33;;;;;;;60.85;24.38;;;-7.80;99.90;;;;;;5017811;28;20532;-78
2024/01/11 04:28:59;;;;;;;61.83;26.77;;;-7.80;99.90;;;;;;5020082;28;20033;-80
2024/01/11 04:31:26;;;;;;;58.03;24.25;;;-7.80;99.90;;;;;;5021864;28;20045;-80
2024/01/11 04:33:52;;;;;;;57.33;20.83;;;-7.70;99.90;;;;;;5017664;28;20025;-79
2024/01/11 04:36:17;;;;;;;56.38;20.52;;;-7.80;99.90;;;;;;5022388;28;20101;-81
2024/01/11 04:38:44;;;;;;;54.42;20.42;;;-7.80;99.90;;;;;;5023674;28;20367;-79
2024/01/11 04:41:14;;;;;;;54.03;21.98;;;-7.80;99.90;;;;;;5025603;28;20036;-79
2024/01/11 04:43:40;;;;;;;54.58;21.25;;;-7.70;99.90;;;;;;5024807;28;20029;-79
2024/01/11 04:46:20;;;;;;;55.85;21.65;;;-7.80;99.90;;;;;;5015136;28;20048;-79
2024/01/11 04:48:51;;;;;;;52.50;19.95;;;-7.80;99.90;;;;;;5020772;28;20033;-79
2024/01/11 04:51:17;;;;;;;64.15;22.55;;;-7.80;99.90;;;;;;5019396;28;20041;-79
2024/01/11 04:53:45;;;;;;;53.08;21.35;;;-7.80;99.90;;;;;;5020263;28;20025;-79
2024/01/11 04:56:13;;;;;;;59.08;22.95;;;-7.80;99.90;;;;;;5024166;28;20029;-78
2024/01/11 04:58:40;;;;;;;52.45;21.50;;;-7.80;99.90;;;;;;5023458;28;20477;-79
2024/01/11 05:01:07;;;;;;;57.17;21.90;;;-7.80;99.90;;;;;;5019893;28;20486;-79
2024/01/11 05:03:33;;;;;;;55.72;22.35;;;-7.80;99.90;;;;;;5020000;28;20021;-79
2024/01/11 05:06:02;;;;;;;58.78;20.92;;;-7.80;99.90;;;;;;5025104;28;20045;-84
2024/01/11 05:08:29;;;;;;;47.85;20.90;;;-7.80;99.90;;;;;;5015992;28;20045;-79
2024/01/11 05:10:55;;;;;;;52.53;21.13;;;-7.70;99.90;;;;;;5018439;28;20128;-79
2024/01/11 05:13:20;;;;;;;53.50;20.10;;;-7.70;99.90;;;;;;5009793;28;20557;-79
2024/01/11 05:15:46;;;;;;;51.13;20.30;;;-7.70;99.90;;;;;;5022265;28;20033;-79
2024/01/11 05:18:13;;;;;;;48.28;19.83;;;-7.70;99.90;;;;;;5021139;28;20472;-82
2024/01/11 05:20:39;;;;;;;37.35;17.05;;;-7.70;99.90;;;;;;5016168;28;20554;-81
2024/01/11 05:23:05;;;;;;;44.70;20.08;;;-7.70;99.90;;;;;;5021501;28;20030;-79
2024/01/11 05:25:34;;;;;;;46.35;20.25;;;-7.70;99.90;;;;;;5017015;28;20029;-79
2024/01/11 05:28:01;;;;;;;49.85;20.00;;;-7.70;99.90;;;;;;5020862;28;20017;-79
2024/01/11 05:30:27;;;;;;;45.40;19.00;;;-7.60;99.90;;;;;;5016810;28;20144;-80
2024/01/11 05:32:53;;;;;;;41.38;18.27;;;-7.70;99.90;;;;;;5022719;28;20517;-80
2024/01/11 05:35:19;;;;;;;46.70;19.50;;;-7.60;99.90;;;;;;5020587;28;20048;-79
2024/01/11 05:37:44;;;;;;;42.67;18.05;;;-7.60;99.90;;;;;;5017645;28;20034;-80
2024/01/11 05:40:10;;;;;;;44.38;17.77;;;-7.70;99.90;;;;;;5012872;28;20481;-79
2024/01/11 05:42:37;;;;;;;41.25;17.33;;;-7.70;99.90;;;;;;5024564;28;20477;-80
2024/01/11 05:45:04;;;;;;;38.45;17.45;;;-7.70;99.90;;;;;;5020052;28;20128;-80
2024/01/11 05:47:30;;;;;;;41.80;17.38;;;-7.60;99.90;;;;;;5018820;28;20029;-79
2024/01/11 05:49:56;;;;;;;35.28;17.05;;;-7.60;99.90;;;;;;5022806;28;20383;-79
2024/01/11 05:52:21;;;;;;;45.92;19.67;;;-7.60;99.90;;;;;;5016387;28;20029;-83
2024/01/11 05:54:47;;;;;;;46.20;17.77;;;-7.60;99.90;;;;;;5017323;28;20120;-79
2024/01/11 05:57:13;;;;;;;40.97;18.05;;;-7.60;99.90;;;;;;5015860;28;20022;-79
2024/01/11 05:59:45;;;;;;;45.28;19.10;;;-7.50;99.90;;;;;;5026998;28;20661;-83
2024/01/11 06:02:11;;;;;;;41.53;17.77;;;-7.50;99.90;;;;;;5014754;28;20040;-78
2024/01/11 06:04:37;;;;;;;45.92;17.55;;;-7.50;99.90;;;;;;5030228;28;20035;-80
2024/01/11 06:07:02;;;;;;;54.67;20.23;;;-7.40;99.90;;;;;;5028583;28;20025;-79
2024/01/11 06:09:28;;;;;;;53.03;19.48;;;-7.40;99.90;;;;;;5024011;28;20022;-79
2024/01/11 06:11:53;;;;;;;42.50;17.17;;;-7.40;99.90;;;;;;5026269;28;20112;-80
2024/01/11 06:14:20;;;;;;;44.13;15.55;;;-7.40;99.90;;;;;;5030612;28;20025;-83
2024/01/11 06:16:45;;;;;;;44.20;17.65;;;-7.40;99.90;;;;;;5023750;28;20040;-82
2024/01/11 06:19:11;;;;;;;38.30;15.93;;;-7.40;99.90;;;;;;5022005;28;20029;-79
2024/01/11 06:21:36;;;;;;;37.58;15.05;;;-7.40;99.90;;;;;;5018783;28;20467;-80
2024/01/11 06:24:03;;;;;;;33.05;13.27;;;-7.40;99.90;;;;;;5025480;28;20021;-80
2024/01/11 06:26:30;;;;;;;31.52;13.63;;;-7.40;99.90;;;;;;5016607;28;20037;-79
2024/01/11 06:28:55;;;;;;;21.58;10.10;;;-7.30;99.90;;;;;;5025091;28;20140;-78
2024/01/11 06:31:21;;;;;;;24.65;10.50;;;-7.40;99.90;;;;;;5020130;28;20549;-80
2024/01/11 06:33:50;;;;;;;31.17;12.82;;;-7.30;99.90;;;;;;5021732;28;20068;-84
2024/01/11 06:36:15;;;;;;;26.25;11.40;;;-7.30;99.90;;;;;;5028558;28;20033;-79
2024/01/11 06:38:41;;;;;;;21.10;9.95;;;-7.30;99.90;;;;;;5026758;28;20405;-79
2024/01/11 06:41:07;;;;;;;23.98;10.30;;;-7.20;99.90;;;;;;5029264;28;20021;-83
2024/01/11 06:43:33;;;;;;;21.73;9.10;;;-7.20;99.90;;;;;;5021311;28;20099;-79
2024/01/11 06:46:04;;;;;;;16.23;8.88;;;-7.20;99.90;;;;;;5018706;28;20040;-79
2024/01/11 06:48:29;;;;;;;20.85;8.68;;;-7.20;99.90;;;;;;5024700;28;20018;-78
2024/01/11 06:50:55;;;;;;;18.65;9.15;;;-7.20;99.90;;;;;;5019064;28;20095;-78
2024/01/11 06:53:20;;;;;;;17.40;8.45;;;-7.10;99.90;;;;;;5013102;28;20737;-79
2024/01/11 06:55:47;;;;;;;16.00;7.10;;;-7.10;99.90;;;;;;5008297;28;20514;-82
2024/01/11 06:58:13;;;;;;;12.82;7.32;;;-7.10;99.90;;;;;;5021843;28;20547;-80
2024/01/11 07:00:42;;;;;;;18.33;8.82;;;-7.10;99.90;;;;;;5018173;28;20033;-79
2024/01/11 07:03:10;;;;;;;15.85;7.82;;;-7.10;99.90;;;;;;5023512;28;20108;-80
2024/01/11 07:05:36;;;;;;;16.80;7.95;;;-7.10;99.90;;;;;;5023288;28;20056;-79
2024/01/11 07:08:01;;;;;;;19.63;7.97;;;-7.00;99.90;;;;;;5025490;28;20113;-78
2024/01/11 07:10:27;;;;;;;18.30;7.75;;;-7.00;99.90;;;;;;5031389;28;20203;-79
2024/01/11 07:12:52;;;;;;;18.45;7.72;;;-7.00;99.90;;;;;;5023885;28;20029;-79
2024/01/11 07:15:18;;;;;;;19.30;8.40;;;-6.90;99.90;;;;;;5024277;28;20497;-79
2024/01/11 07:17:44;;;;;;;14.13;7.45;;;-6.90;99.90;;;;;;5030561;28;20037;-79
2024/01/11 07:20:10;;;;;;;17.77;9.63;;;-6.80;99.90;;;;;;5026836;28;20021;-80
2024/01/11 07:22:35;;;;;;;14.98;7.00;;;-6.90;99.90;;;;;;5020834;28;20106;-77
2024/01/11 07:25:01;;;;;;;12.10;6.72;;;-6.90;99.90;;;;;;5025281;28;20453;-79
2024/01/11 07:27:27;;;;;;;15.68;8.13;;;-6.90;99.90;;;;;;5024988;28;20025;-79
2024/01/11 07:29:52;;;;;;;14.15;7.03;;;-6.90;99.90;;;;;;5023713;28;20393;-80
2024/01/11 07:32:18;;;;;;;11.93;7.10;;;-7.00;99.90;;;;;;5016531;28;20046;-79
2024/01/11 07:34:43;;;;;;;10.75;6.57;;;-6.90;99.90;;;;;;5022480;28;20490;-83
2024/01/11 07:37:09;;;;;;;12.95;7.15;;;-6.90;99.90;;;;;;5021228;28;20452;-80
2024/01/11 07:39:36;;;;;;;12.68;7.28;;;-6.90;99.90;;;;;;5028145;28;20032;-78
2024/01/11 07:42:05;;;;;;;13.55;7.05;;;-6.90;99.90;;;;;;5027326;28;20053;-83
2024/01/11 07:44:30;;;;;;;9.70;6.07;;;-6.90;99.90;;;;;;5022670;28;20032;-79
2024/01/11 07:46:56;;;;;;;12.73;7.00;;;-6.90;99.90;;;;;;5036512;28;20556;-79
2024/01/11 07:49:24;;;;;;;16.10;7.15;;;-6.90;99.90;;;;;;5032248;28;20033;-81
2024/01/11 07:51:50;;;;;;;11.18;6.50;;;-6.90;99.90;;;;;;5031500;28;20088;-79
2024/01/11 07:54:17;;;;;;;17.15;7.30;;;-6.80;99.90;;;;;;5027603;28;20422;-82
2024/01/11 07:56:42;;;;;;;11.20;5.72;;;-6.90;99.90;;;;;;5024917;28;20126;-78
2024/01/11 07:59:09;;;;;;;18.90;7.03;;;-6.80;99.90;;;;;;5023217;28;20466;-80
2024/01/11 08:01:35;;;;;;;12.93;6.88;;;-6.80;99.90;;;;;;5021489;28;20025;-79
2024/01/11 08:04:02;;;;;;;14.80;8.82;;;-6.80;99.90;;;;;;5016594;28;20490;-79
2024/01/11 08:06:28;;;;;;;16.63;9.20;;;-6.70;99.90;;;;;;5019657;28;20605;-79
2024/01/11 08:08:53;;;;;;;27.88;12.30;;;-6.60;99.90;;;;;;5025426;28;20109;-81
2024/01/11 08:11:19;;;;;;;27.85;12.57;;;-6.60;99.90;;;;;;5025843;28;20042;-79
2024/01/11 08:13:45;;;;;;;27.23;14.52;;;-6.50;99.90;;;;;;5014528;28;20032;-79
2024/01/11 08:16:17;;;;;;;28.80;13.57;;;-6.40;99.90;;;;;;5027793;28;20018;-78
2024/01/11 08:18:43;;;;;;;40.33;16.80;;;-6.40;99.90;;;;;;5025273;28;20441;-77
2024/01/11 08:21:10;;;;;;;34.35;16.35;;;-6.30;99.90;;;;;;5028031;28;20025;-80
2024/01/11 08:23:48;;;;;;;39.47;17.73;;;-6.30;99.90;;;;;;5027061;28;20277;-78
2024/01/11 08:26:14;;;;;;;41.53;17.42;;;-6.30;99.90;;;;;;5029362;28;20112;-78
2024/01/11 08:28:40;;;;;;;72.90;25.73;;;-6.30;99.90;;;;;;5026475;28;20037;-78
2024/01/11 08:31:07;;;;;;;83.78;29.80;;;-6.20;99.90;;;;;;5022845;28;20052;-78
2024/01/11 08:33:39;;;;;;;73.95;28.30;;;-6.20;99.90;;;;;;5015205;28;20029;-79
2024/01/11 08:36:06;;;;;;;62.13;23.98;;;-6.20;99.90;;;;;;5028997;28;20032;-78
2024/01/11 08:38:32;;;;;;;61.47;24.02;;;-6.20;99.90;;;;;;5023563;28;20048;-78
2024/01/11 08:40:58;;;;;;;60.42;24.95;;;-6.10;99.90;;;;;;5031296;28;20021;-80
2024/01/11 08:43:24;;;;;;;51.97;21.75;;;-6.10;99.90;;;;;;5026610;28;20044;-82
2024/01/11 08:45:50;;;;;;;46.75;19.08;;;-6.10;99.90;;;;;;5026786;28;20021;-79
2024/01/11 08:48:18;;;;;;;47.30;19.67;;;-6.10;99.90;;;;;;5025902;28;20074;-82
2024/01/11 08:50:44;;;;;;;48.63;20.65;;;-6.00;99.90;;;;;;5023460;28;20041;-79
2024/01/11 08:53:10;;;;;;;80.82;29.17;;;-6.00;99.90;;;;;;5017850;28;20041;-79
2024/01/11 08:55:35;;;;;;;66.68;27.95;;;-6.00;99.90;;;;;;5032401;28;20025;-79
2024/01/11 08:58:01;;;;;;;69.70;25.52;;;-5.90;99.90;;;;;;5025491;28;20030;-79
2024/01/11 09:00:30;;;;;;;71.97;26.98;;;-5.90;99.90;;;;;;5028951;28;20029;-79
2024/01/11 09:02:55;;;;;;;72.47;25.52;;;-5.80;99.90;;;;;;5024794;28;20018;-79
2024/01/11 09:05:21;;;;;;;58.03;24.42;;;-5.70;99.90;;;;;;5023895;28;20132;-79
2024/01/11 09:07:47;;;;;;;54.38;23.90;;;-5.70;99.90;;;;;;5024695;28;20033;-79
2024/01/11 09:10:13;;;;;;;43.67;19.95;;;-5.60;99.90;;;;;;5026248;28;20040;-82
2024/01/11 09:12:38;;;;;;;48.97;19.65;;;-5.60;99.90;;;;;;5027211;28;20033;-79
2024/01/11 09:15:04;;;;;;;34.85;16.98;;;-5.60;99.90;;;;;;5025196;28;20032;-79
2024/01/11 09:17:30;;;;;;;41.08;17.52;;;-5.50;99.90;;;;;;5023826;28;20075;-79
2024/01/11 09:19:56;;;;;;;37.67;16.98;;;-5.50;99.90;;;;;;5023283;28;20033;-79
2024/01/11 09:22:22;;;;;;;30.60;16.02;;;-5.40;99.90;;;;;;5024664;28;20533;-79
2024/01/11 09:24:48;;;;;;;39.35;19.05;;;-5.20;99.90;;;;;;5026810;28;20026;-83
2024/01/11 09:27:13;;;;;;;31.13;16.33;;;-5.30;99.90;;;;;;5029164;28;20029;-78
2024/01/11 09:29:44;;;;;;;40.97;18.65;;;-5.20;99.90;;;;;;5023744;28;20041;-82
2024/01/11 09:32:09;;;;;;;41.85;18.40;;;-5.20;99.90;;;;;;5024762;28;20384;-80
2024/01/11 09:34:35;;;;;;;35.83;18.25;;;-5.10;99.90;;;;;;5022523;28;20169;-78
2024/01/11 09:37:01;;;;;;;41.22;17.95;;;-5.00;99.90;;;;;;5029109;28;20080;-79
2024/01/11 09:39:26;;;;;;;32.85;16.38;;;-5.00;99.90;;;;;;5024097;28;20280;-78
2024/01/11 09:42:09;;;;;;;34.83;16.15;;;-5.00;99.90;;;;;;5025900;28;20382;-80
2024/01/11 09:44:37;;;;;;;33.75;16.60;;;-4.90;99.90;;;;;;5031856;28;20481;-78
2024/01/11 09:47:06;;;;;;;27.55;14.88;;;-4.80;99.90;;;;;;5024999;28;20037;-79
2024/01/11 09:49:32;;;;;;;43.78;20.15;;;-4.80;99.90;;;;;;5024908;28;20053;-79
2024/01/11 09:52:01;;;;;;;46.50;20.65;;;-4.80;99.90;;;;;;5023811;28;20461;-78
2024/01/11 09:54:27;;;;;;;51.17;24.67;;;-4.70;99.90;;;;;;5019691;28;20117;-78
2024/01/11 09:56:54;;;;;;;50.35;24.42;;;-4.70;99.90;;;;;;5017082;28;20144;-80
2024/01/11 09:59:24;;;;;;;44.03;22.55;;;-4.60;99.90;;;;;;5016124;28;20032;-79
2024/01/11 10:01:50;;;;;;;42.22;19.88;;;-4.60;99.90;;;;;;5020551;28;20021;-78
2024/01/11 10:04:16;;;;;;;44.70;22.25;;;-4.60;99.90;;;;;;5024005;28;20033;-79
2024/01/11 10:06:42;;;;;;;40.22;20.35;;;-4.50;99.90;;;;;;5024031;28;20172;-79
2024/01/11 10:09:08;;;;;;;46.38;21.88;;;-4.50;99.90;;;;;;5023057;28;20052;-80
2024/01/11 10:11:34;;;;;;;43.38;18.77;;;-4.40;99.90;;;;;;5016441;28;20053;-79
2024/01/11 10:14:01;;;;;;;45.47;20.48;;;-4.40;99.90;;;;;;5021245;28;20032;-79
2024/01/11 10:16:28;;;;;;;43.05;19.15;;;-4.40;99.90;;;;;;5022721;28;20030;-78
2024/01/11 10:18:55;;;;;;;41.40;19.48;;;-4.30;99.90;;;;;;5020284;28;20032;-80
2024/01/11 10:21:21;;;;;;;53.90;19.88;;;-4.20;99.90;;;;;;5024603;28;20049;-79
2024/01/11 10:23:46;;;;;;;57.83;23.75;;;-4.20;99.90;;;;;;5021696;28;20036;-79
2024/01/11 10:26:17;;;;;;;52.33;22.05;;;-4.10;99.90;;;;;;5019954;28;20547;-81
2024/01/11 10:28:46;;;;;;;58.53;21.05;;;-3.90;99.90;;;;;;5025688;28;20245;-82
2024/01/11 10:31:17;;;;;;;46.72;21.60;;;-3.70;99.90;;;;;;5020687;28;20548;-81
2024/01/11 10:33:44;;;;;;;46.22;20.85;;;-3.60;99.90;;;;;;5016798;28;20033;-80
2024/01/11 10:36:12;;;;;;;55.97;25.38;;;-3.50;99.90;;;;;;5022799;28;20021;-79
2024/01/11 10:38:39;;;;;;;61.20;24.80;;;-3.40;99.90;;;;;;5021993;28;20048;-81
2024/01/11 10:41:06;;;;;;;68.43;26.73;;;-3.40;99.90;;;;;;5023704;28;20478;-79
2024/01/11 10:43:35;;;;;;;67.80;25.67;;;-3.40;99.90;;;;;;5017181;28;20053;-79
2024/01/11 10:46:04;;;;;;;61.42;24.58;;;-3.30;99.90;;;;;;5016668;28;20440;-80
2024/01/11 10:48:33;;;;;;;59.75;23.90;;;-3.20;99.90;;;;;;5019784;28;20493;-78
2024/01/11 10:51:05;;;;;;;60.80;24.48;;;-3.20;99.90;;;;;;5021752;28;20041;-78
2024/01/11 10:53:47;;;;;;;57.90;24.42;;;-3.10;99.90;;;;;;5021707;28;20044;-78
2024/01/11 10:56:19;;;;;;;57.30;23.45;;;-3.00;99.90;;;;;;5034257;28;20343;-78
2024/01/11 10:58:46;;;;;;;50.05;21.38;;;-3.00;99.90;;;;;;5012975;28;20030;-79
2024/01/11 11:01:13;;;;;;;48.33;22.13;;;-3.00;99.90;;;;;;5018302;28;20056;-78
2024/01/11 11:03:44;;;;;;;52.33;21.80;;;-3.10;99.90;;;;;;5025097;28;20702;-81
2024/01/11 11:06:11;;;;;;;49.65;23.40;;;-3.10;99.90;;;;;;5027764;28;20037;-79
2024/01/11 11:08:37;;;;;;;54.00;21.48;;;-3.20;99.90;;;;;;5025945;28;20397;-79
2024/01/11 11:11:05;;;;;;;51.67;24.60;;;-3.10;99.90;;;;;;5027900;28;20113;-78
2024/01/11 11:13:32;;;;;;;62.38;27.73;;;-3.10;99.90;;;;;;5017297;28;20041;-80
2024/01/11 11:15:58;;;;;;;80.40;32.67;;;-3.00;99.90;;;;;;5023047;28;20060;-79
2024/01/11 11:18:24;;;;;;;80.80;31.35;;;-3.00;99.90;;;;;;5016984;28;20298;-79
2024/01/11 11:20:50;;;;;;;77.65;31.67;;;-2.90;99.90;;;;;;5021818;28;20037;-79
2024/01/11 11:23:19;;;;;;;82.80;36.47;;;-2.90;99.90;;;;;;5024746;28;20034;-81
2024/01/11 11:25:47;;;;;;;80.53;36.60;;;-2.90;99.90;;;;;;5023411;28;20501;-79
2024/01/11 11:28:14;;;;;;;83.50;34.45;;;-2.80;99.90;;;;;;5024218;28;20045;-78
2024/01/11 11:30:42;;;;;;;86.63;36.90;;;-2.60;99.90;;;;;;5015290;28;20109;-79
2024/01/11 11:33:09;;;;;;;85.80;35.13;;;-2.60;99.90;;;;;;5031408;28;20390;-79
2024/01/11 11:35:35;;;;;;;84.07;33.80;;;-2.40;99.90;;;;;;5020288;28;20041;-78
2024/01/11 11:38:02;;;;;;;76.00;33.60;;;-2.30;99.90;;;;;;5025566;28;20030;-79
2024/01/11 11:40:40;;;;;;;87.65;36.30;;;-2.20;99.90;;;;;;5021643;28;20029;-78
2024/01/11 11:43:06;;;;;;;91.50;37.90;;;-2.20;99.90;;;;;;5022216;28;20040;-80
2024/01/11 11:45:33;;;;;;;98.82;38.78;;;-2.20;99.90;;;;;;5022997;28;20048;-78
2024/01/11 11:47:58;;;;;;;90.90;42.00;;;-2.20;99.90;;;;;;5023985;28;20117;-78
2024/01/11 11:50:24;;;;;;;114.25;47.13;;;-2.20;99.90;;;;;;5024559;28;20128;-80
2024/01/11 11:52:56;;;;;;;111.07;43.88;;;-2.10;99.90;;;;;;5039084;28;20471;-78
2024/01/11 11:55:25;;;;;;;104.90;43.47;;;-2.00;99.90;;;;;;5030939;28;20029;-78
2024/01/11 11:57:53;;;;;;;105.40;44.33;;;-1.90;99.90;;;;;;5030918;28;20394;-79
2024/01/11 12:00:20;;;;;;;108.07;45.60;;;-1.80;99.90;;;;;;5021677;28;20401;-80
2024/01/11 12:02:47;;;;;;;109.38;47.65;;;-1.70;99.90;;;;;;5021222;28;20130;-78
2024/01/11 12:05:13;;;;;;;116.32;48.75;;;-1.80;99.90;;;;;;5014778;28;20141;-79
2024/01/11 12:07:38;;;;;;;119.90;50.53;;;-1.80;99.90;;;;;;5007530;28;20037;-80
2024/01/11 12:10:06;;;;;;;124.88;51.65;;;-1.90;99.90;;;;;;5008786;28;20497;-81
2024/01/11 12:12:33;;;;;;;119.18;51.58;;;-1.90;99.90;;;;;;5010054;28;20030;-78
2024/01/11 12:14:59;;;;;;;124.38;51.22;;;-2.00;99.90;;;;;;5014033;28;20034;-80
2024/01/11 12:17:25;;;;;;;124.70;51.53;;;-2.00;99.90;;;;;;5013953;28;20029;-80
2024/01/11 12:19:52;;;;;;;126.75;51.70;;;-2.00;99.90;;;;;;5015491;28;20029;-79
2024/01/11 12:22:19;;;;;;;126.65;50.97;;;-1.90;99.90;;;;;;5018082;28;20025;-79
2024/01/11 12:24:46;;;;;;;117.80;49.35;;;-1.90;99.90;;;;;;5015044;28;20623;-79
2024/01/11 12:27:11;;;;;;;117.82;51.17;;;-2.00;99.90;;;;;;5016077;28;20474;-79